Disclaimer

Please do not use the information listed here in-flight or in-navigation, as they are not provided to us by the airports but are provided by volunteers, so they might be outdated.

Search


Regions


Airport information page

Radio informations:
Tower (TWR) - 125.175 MHz
STRASSBOURG RADA - 119.45 MHz
LANGEN INFO - 128.95 MHz

Airport informations:
Latitude: 48° 22' 09.30" N
Longitude: 007° 49' 39.80" E
Elevation: 511 feet - 156 meters
Operating hours: Remarks
Operating agency: Private
Timezone: UTC+1(+2DT) - Last Sunday in March to last Sunday in October
Fuel: Jet A1, without icing nhibitor.

100/130 MIL Spec, low lead, aviation gasoline (BLUE)

Runway information:
03/21 - 9842 x 148 feet< - >3000 x 45 meters

Recent METARs:
EDTL 180920Z VRB01KT CAVOK 02/M02 Q1023
EDTL 180950Z VRB01KT CAVOK 03/M01 Q1023
EDTL 181020Z VRB02KT CAVOK 04/M01 Q1023

Airport on the map: